Time;durP1;ratioP1;P1;durP2;ratioP2;P2;SDS_P1;SDS_P2;PMS_P1;PMS_P2;Temp;Humidity;BMP_temperature;BMP_pressure;BME280_temperature;BME280_humidity;BME280_pressure;Samples;Min_cycle;Max_cycle;Signal;HPM_P1;HPM_P2
2023/01/06 00:00:09;;;;;;;11.20;6.30;;;;;;;;;;4997333;28;20435;-71
2023/01/06 00:02:34;;;;;;;13.60;7.00;;;;;;;;;;5036090;28;20049;-72
2023/01/06 00:04:59;;;;;;;12.00;6.20;;;;;;;;;;4999722;28;20025;-71
2023/01/06 00:07:25;;;;;;;12.03;6.17;;;;;;;;;;5022725;28;20037;-72
2023/01/06 00:09:50;;;;;;;13.00;6.67;;;;;;;;;;5025741;28;20175;-71
2023/01/06 00:12:15;;;;;;;13.60;6.23;;;;;;;;;;5022079;28;20278;-71
2023/01/06 00:14:41;;;;;;;13.60;6.20;;;;;;;;;;5017564;28;20040;-71
2023/01/06 00:17:07;;;;;;;12.77;6.63;;;;;;;;;;5018026;28;20275;-70
2023/01/06 00:19:32;;;;;;;15.23;6.97;;;;;;;;;;5041586;28;20029;-70
2023/01/06 00:21:57;;;;;;;13.27;6.30;;;;;;;;;;5028281;28;20029;-70
2023/01/06 00:24:23;;;;;;;12.10;5.73;;;;;;;;;;5026363;28;20424;-71
2023/01/06 00:26:48;;;;;;;12.57;6.20;;;;;;;;;;5024800;28;20129;-69
2023/01/06 00:29:13;;;;;;;18.60;6.33;;;;;;;;;;5024717;28;20801;-71
2023/01/06 00:31:38;;;;;;;12.93;6.13;;;;;;;;;;5028683;28;20593;-70
2023/01/06 00:34:04;;;;;;;9.23;5.30;;;;;;;;;;5039908;28;20056;-70
2023/01/06 00:36:29;;;;;;;12.20;6.20;;;;;;;;;;5021498;28;20036;-70
2023/01/06 00:38:54;;;;;;;11.60;5.95;;;;;;;;;;5049188;28;20335;-71
2023/01/06 00:44:04;;;;;;;12.27;5.22;;;;;;;;;;5026725;28;20061;-70
2023/01/06 00:46:29;;;;;;;9.90;5.00;;;;;;;;;;5022432;28;20053;-70
2023/01/06 00:48:59;;;;;;;12.80;5.70;;;;;;;;;;5040421;28;20036;-71
2023/01/06 00:51:24;;;;;;;11.35;5.30;;;;;;;;;;5021426;28;20109;-71
2023/01/06 00:53:49;;;;;;;9.00;4.70;;;;;;;;;;5021117;28;20022;-71
2023/01/06 00:56:14;;;;;;;11.27;5.32;;;;;;;;;;5028514;28;20788;-70
2023/01/06 00:58:40;;;;;;;15.87;5.10;;;;;;;;;;5025216;28;20041;-70
2023/01/06 01:01:06;;;;;;;10.90;4.70;;;;;;;;;;5018351;28;20296;-70
2023/01/06 01:03:31;;;;;;;9.25;3.80;;;;;;;;;;5021624;28;20049;-70
2023/01/06 01:06:00;;;;;;;11.70;3.53;;;;;;;;;;5030471;28;20031;-70
2023/01/06 01:08:26;;;;;;;9.38;3.78;;;;;;;;;;5020298;28;20080;-70
2023/01/06 01:10:51;;;;;;;5.97;3.17;;;;;;;;;;5026862;28;20053;-71
2023/01/06 01:13:17;;;;;;;8.52;3.22;;;;;;;;;;5020501;28;20072;-71
2023/01/06 01:15:42;;;;;;;7.23;2.87;;;;;;;;;;5024237;28;20030;-70
2023/01/06 01:18:07;;;;;;;7.83;3.03;;;;;;;;;;5023338;28;20808;-70
2023/01/06 01:20:33;;;;;;;5.43;2.40;;;;;;;;;;5025613;28;20318;-70
2023/01/06 01:22:58;;;;;;;5.43;2.17;;;;;;;;;;5009048;28;20803;-70
2023/01/06 01:25:23;;;;;;;5.27;2.30;;;;;;;;;;5026085;28;20025;-70
2023/01/06 01:27:48;;;;;;;4.20;2.30;;;;;;;;;;5041975;28;20029;-70
2023/01/06 01:30:14;;;;;;;4.73;2.37;;;;;;;;;;5007947;28;20373;-70
2023/01/06 01:32:39;;;;;;;5.22;2.15;;;;;;;;;;5021197;28;20431;-70
2023/01/06 01:35:04;;;;;;;5.43;2.13;;;;;;;;;;5023169;28;20026;-70
2023/01/06 01:37:30;;;;;;;4.22;1.92;;;;;;;;;;5026746;28;20059;-70
2023/01/06 01:39:55;;;;;;;5.43;2.00;;;;;;;;;;5023515;28;20025;-70
2023/01/06 01:42:20;;;;;;;6.63;1.80;;;;;;;;;;5026888;28;20103;-70
2023/01/06 01:44:52;;;;;;;5.27;1.63;;;;;;;;;;5021872;28;20287;-70
2023/01/06 01:47:20;;;;;;;6.15;1.75;;;;;;;;;;5035931;28;20033;-70
2023/01/06 01:49:46;;;;;;;6.20;1.52;;;;;;;;;;5024370;28;20105;-70
2023/01/06 01:52:12;;;;;;;5.13;1.60;;;;;;;;;;5021833;28;20462;-70
2023/01/06 01:54:39;;;;;;;7.15;1.88;;;;;;;;;;5022440;28;20026;-71
2023/01/06 01:57:10;;;;;;;2.80;1.45;;;;;;;;;;5025246;28;20087;-72
2023/01/06 01:59:36;;;;;;;8.48;1.60;;;;;;;;;;5013246;28;20108;-72
2023/01/06 02:02:01;;;;;;;5.75;1.35;;;;;;;;;;5025381;28;20035;-71
2023/01/06 02:04:27;;;;;;;5.63;1.30;;;;;;;;;;5020232;28;20030;-71
2023/01/06 02:06:52;;;;;;;3.33;1.52;;;;;;;;;;5017131;28;20048;-72
2023/01/06 02:09:39;;;;;;;2.40;1.33;;;;;;;;;;5019254;28;20445;-71
2023/01/06 02:12:04;;;;;;;6.35;1.60;;;;;;;;;;5020928;28;20133;-71
2023/01/06 02:14:29;;;;;;;3.58;1.55;;;;;;;;;;5020778;28;20116;-72
2023/01/06 02:16:55;;;;;;;5.40;2.17;;;;;;;;;;5022854;28;20026;-72
2023/01/06 02:19:23;;;;;;;3.73;1.50;;;;;;;;;;5019889;28;20037;-72
2023/01/06 02:21:48;;;;;;;4.05;1.45;;;;;;;;;;5010693;28;20374;-71
2023/01/06 02:24:25;;;;;;;4.17;1.57;;;;;;;;;;5026653;28;20060;-72
2023/01/06 02:26:50;;;;;;;6.65;2.00;;;;;;;;;;5008677;28;20274;-70
2023/01/06 02:29:33;;;;;;;4.37;1.60;;;;;;;;;;5018881;28;20044;-72
2023/01/06 02:31:58;;;;;;;3.47;1.50;;;;;;;;;;5020554;28;20076;-72
2023/01/06 02:34:29;;;;;;;4.43;1.50;;;;;;;;;;5019114;28;20057;-72
2023/01/06 02:37:13;;;;;;;5.22;1.70;;;;;;;;;;5008243;28;20029;-72
2023/01/06 02:39:41;;;;;;;3.72;1.60;;;;;;;;;;5021388;28;20022;-71
2023/01/06 02:42:16;;;;;;;3.50;1.63;;;;;;;;;;5020966;28;20058;-72
2023/01/06 02:44:41;;;;;;;5.28;1.65;;;;;;;;;;5043372;28;20045;-72
2023/01/06 02:47:15;;;;;;;8.17;2.03;;;;;;;;;;5008581;28;20068;-72
2023/01/06 02:49:43;;;;;;;3.55;1.88;;;;;;;;;;5025676;28;20034;-70
2023/01/06 02:52:13;;;;;;;4.93;1.80;;;;;;;;;;5018723;28;20044;-71
2023/01/06 02:54:38;;;;;;;3.72;2.20;;;;;;;;;;5005822;28;20034;-72
2023/01/06 02:57:10;;;;;;;3.60;1.63;;;;;;;;;;5014627;28;20033;-71
2023/01/06 02:59:37;;;;;;;3.40;1.58;;;;;;;;;;5021159;28;20763;-72
2023/01/06 03:02:02;;;;;;;6.57;2.00;;;;;;;;;;4999809;28;20527;-72
2023/01/06 03:04:30;;;;;;;7.53;1.65;;;;;;;;;;5017497;28;20053;-72
2023/01/06 03:07:01;;;;;;;5.35;2.08;;;;;;;5.78;nan;101006.59;5020066;28;20036;-71
2023/01/06 03:09:32;;;;;;;6.20;1.90;;;;;;;5.67;nan;101000.81;5027298;28;20021;-71
2023/01/06 03:12:00;;;;;;;3.85;1.92;;;;;;;5.61;nan;100991.09;5020185;28;20033;-71
2023/01/06 03:14:35;;;;;;;3.28;1.65;;;;;;;5.69;nan;101019.75;5014679;28;20029;-72
2023/01/06 03:17:01;;;;;;;4.50;1.90;;;;;;;5.55;nan;101004.84;5016794;28;20033;-73
2023/01/06 03:19:26;;;;;;;6.18;1.95;;;;;;;5.60;nan;101018.19;5018910;28;20029;-71
2023/01/06 03:21:52;;;;;;;5.07;2.08;;;;;;;;;;5006038;28;20044;-72
2023/01/06 03:24:17;;;;;;;6.03;2.42;;;;;;;5.33;nan;100959.50;5022192;28;20026;-72
2023/01/06 03:26:44;;;;;;;5.13;2.40;;;;;;;;;;5026852;28;20022;-72
2023/01/06 03:29:11;;;;;;;6.13;2.15;;;;;;;;;;5023099;28;20064;-71
2023/01/06 03:31:48;;;;;;;4.53;2.10;;;;;;;;;;5019157;28;20030;-72
2023/01/06 03:34:21;;;;;;;7.43;2.15;;;;;;;;;;5019309;28;20053;-69
2023/01/06 03:36:50;;;;;;;7.05;2.72;;;;;;;;;;5030274;28;20022;-73
2023/01/06 03:39:26;;;;;;;4.90;2.00;;;;;;;;;;5021583;28;20549;-72
2023/01/06 03:44:45;;;;;;;6.03;2.20;;;;;;;;;;5019347;28;20068;-72
2023/01/06 03:47:16;;;;;;;6.03;2.20;;;;;;;;;;5001029;28;20029;-72
2023/01/06 03:49:51;;;;;;;5.25;2.00;;;;;;;;;;5025235;28;20031;-72
2023/01/06 03:52:28;;;;;;;4.00;1.95;;;;;;;;;;5011796;28;20071;-71
2023/01/06 03:54:58;;;;;;;7.00;2.80;;;;;;;;;;5022334;28;20025;-72
2023/01/06 03:57:25;;;;;;;5.18;2.47;;;;;;;;;;5033243;28;20375;-73
2023/01/06 03:59:57;;;;;;;4.88;2.35;;;;;;;;;;5021384;28;20034;-72
2023/01/06 04:02:22;;;;;;;6.97;2.50;;;;;;;;;;5023667;28;20538;-72
2023/01/06 04:05:06;;;;;;;6.28;2.22;;;;;;;;;;5020005;28;20037;-72
2023/01/06 04:07:31;;;;;;;8.77;2.20;;;;;;;;;;5027016;28;20030;-71
2023/01/06 04:09:57;;;;;;;5.65;2.50;;;;;;;;;;5041432;28;20029;-72
2023/01/06 04:12:37;;;;;;;7.43;2.23;;;;;;;;;;5021936;28;20026;-72
2023/01/06 04:15:02;;;;;;;7.10;2.35;;;;;;;;;;5021648;28;20122;-71
2023/01/06 04:17:27;;;;;;;6.45;2.30;;;;;;;;;;5001584;28;20105;-72
2023/01/06 04:19:53;;;;;;;5.33;2.93;;;;;;;;;;5023147;28;20026;-72
2023/01/06 04:22:18;;;;;;;8.27;2.93;;;;;;;;;;5030324;28;20060;-72
2023/01/06 04:24:43;;;;;;;6.60;2.50;;;;;;;;;;5026243;28;20104;-72
2023/01/06 04:27:08;;;;;;;7.50;3.20;;;;;;;;;;5041197;28;20037;-72
2023/01/06 04:29:33;;;;;;;6.90;2.50;;;;;;;;;;5022392;28;20522;-71
2023/01/06 04:31:59;;;;;;;5.13;2.30;;;;;;;;;;5022977;28;20393;-72
2023/01/06 04:34:24;;;;;;;8.63;2.80;;;;;;;;;;5023643;28;20033;-71
2023/01/06 04:36:49;;;;;;;8.03;3.27;;;;;;;;;;5034950;28;20639;-72
2023/01/06 04:39:14;;;;;;;9.07;3.27;;;;;;;;;;5028327;28;20459;-72
2023/01/06 04:41:40;;;;;;;4.77;2.67;;;;;;;;;;5037986;28;20168;-72
2023/01/06 04:44:05;;;;;;;8.57;2.30;;;;;;;;;;5023065;28;20290;-71
2023/01/06 04:46:30;;;;;;;10.63;3.70;;;;;;;;;;5037863;28;20124;-72
2023/01/06 04:48:55;;;;;;;14.40;6.87;;;;;;;;;;5016334;28;20636;-72
2023/01/06 04:51:20;;;;;;;11.83;4.27;;;;;;;;;;5022273;28;20542;-72
2023/01/06 04:53:46;;;;;;;8.23;3.70;;;;;;;;;;5021524;28;20087;-73
2023/01/06 04:56:12;;;;;;;5.20;3.03;;;;;;;;;;5030904;28;20061;-72
2023/01/06 04:58:38;;;;;;;6.93;3.03;;;;;;;;;;5024394;28;20029;-72
2023/01/06 05:01:10;;;;;;;5.95;2.83;;;;;;;3.83;nan;101089.09;5026086;28;20479;-72
2023/01/06 05:03:35;;;;;;;6.32;3.20;;;;;;;;;;5025560;28;20113;-72
2023/01/06 05:06:01;;;;;;;6.55;3.20;;;;;;;;;;5029624;28;20519;-71
2023/01/06 05:08:27;;;;;;;10.90;3.90;;;;;;;;;;5019948;28;20383;-71
2023/01/06 05:10:58;;;;;;;8.33;3.80;;;;;;;;;;5021562;28;20026;-73
2023/01/06 05:13:23;;;;;;;6.18;3.30;;;;;;;;;;5025761;28;20337;-72
2023/01/06 05:15:48;;;;;;;10.00;3.17;;;;;;;;;;5036084;28;20628;-72
2023/01/06 05:18:13;;;;;;;4.40;2.90;;;;;;;;;;5038571;28;20029;-73
2023/01/06 05:20:38;;;;;;;5.43;2.87;;;;;;;;;;5027864;28;20021;-72
2023/01/06 05:23:04;;;;;;;7.67;3.33;;;;;;;;;;5029475;28;20338;-72
2023/01/06 05:25:29;;;;;;;5.03;3.17;;;;;;;;;;5028161;28;20076;-72
2023/01/06 05:27:54;;;;;;;8.75;3.28;;;;;;;;;;5023461;28;20033;-72
2023/01/06 05:30:19;;;;;;;7.73;3.70;;;;;;;;;;5028122;28;20064;-72
2023/01/06 05:32:45;;;;;;;6.33;3.03;;;;;;;;;;5025622;28;20034;-72
2023/01/06 05:35:10;;;;;;;6.37;3.30;;;;;;;;;;5029023;28;20824;-72
2023/01/06 05:37:35;;;;;;;9.17;3.50;;;;;;;;;;5047495;28;20173;-72
2023/01/06 05:40:00;;;;;;;6.18;3.33;;;;;;;;;;5025465;28;20287;-72
2023/01/06 05:42:26;;;;;;;9.57;3.20;;;;;;;;;;5029637;28;20025;-72
2023/01/06 05:44:51;;;;;;;6.93;3.70;;;;;;;;;;5024178;28;20040;-72
2023/01/06 05:47:16;;;;;;;7.93;3.83;;;;;;;3.25;nan;101215.75;5028667;28;20028;-72
2023/01/06 05:49:41;;;;;;;7.05;3.35;;;;;;;2.82;nan;101149.88;5026183;28;20344;-73
2023/01/06 05:52:07;;;;;;;8.95;3.35;;;;;;;2.73;nan;101143.00;5036011;28;20029;-72
2023/01/06 05:54:32;;;;;;;10.32;4.13;;;;;;;2.85;nan;101164.34;5026398;28;20113;-72
2023/01/06 05:56:57;;;;;;;7.00;3.55;;;;;;;2.55;nan;101117.09;5022117;28;20060;-71
2023/01/06 05:59:23;;;;;;;9.05;3.60;;;;;;;2.84;nan;101173.13;4999787;28;20060;-71
2023/01/06 06:01:48;;;;;;;9.20;3.90;;;;;;;2.77;nan;101181.56;5023190;28;20469;-71
2023/01/06 06:04:14;;;;;;;5.03;2.83;;;;;;;2.60;nan;101147.81;5022414;28;20036;-71
2023/01/06 06:06:39;;;;;;;5.97;2.88;;;;;;;2.64;nan;101177.75;5031006;28;20427;-73
2023/01/06 06:09:05;;;;;;;7.57;3.72;;;;;;;2.24;nan;101127.94;5017327;28;20087;-71
2023/01/06 06:11:30;;;;;;;7.10;3.97;;;;;;;2.55;nan;101188.09;5021263;28;20021;-70
2023/01/06 06:13:56;;;;;;;9.13;3.55;;;;;;;2.53;nan;101194.41;5030753;28;20021;-71
2023/01/06 06:16:25;;;;;;;5.88;3.22;;;;;;;2.49;nan;101195.66;5009221;28;20034;-70
2023/01/06 06:18:53;;;;;;;7.90;3.53;;;;;;;2.31;nan;101182.72;5024918;28;20055;-72
2023/01/06 06:21:22;;;;;;;8.50;3.60;;;;;;;2.21;nan;101177.63;5011557;28;20033;-72
2023/01/06 06:23:48;;;;;;;;;;;;;;;2.26;nan;101208.34;5013617;28;20068;-73
2023/01/06 06:26:13;;;;;;;10.85;4.95;;;;;;;2.25;nan;101210.16;5023509;28;19964;-73
2023/01/06 06:28:40;;;;;;;11.40;5.20;;;;;;;2.03;nan;101195.00;5011303;28;20462;-70
2023/01/06 06:31:11;;;;;;;11.75;4.78;;;;;;;2.22;nan;101222.59;5023867;28;20049;-72
2023/01/06 06:33:37;;;;;;;7.97;4.13;;;;;;;2.21;nan;101232.19;5027297;28;20479;-72
2023/01/06 06:36:05;;;;;;;7.03;4.00;;;;;;;2.14;nan;101228.56;5010729;28;20373;-73
2023/01/06 06:38:30;;;;;;;10.93;5.07;;;;;;;2.16;nan;101234.41;5012644;28;20083;-74
2023/01/06 06:40:56;;;;;;;12.82;5.65;;;;;;;2.03;nan;101223.56;5028178;28;20025;-74
2023/01/06 06:43:21;;;;;;;11.18;4.60;;;;;;;2.04;nan;101240.81;5010389;28;20021;-74
2023/01/06 06:45:47;;;;;;;11.32;4.00;;;;;;;1.98;nan;101231.00;5028358;28;20475;-73
2023/01/06 06:48:12;;;;;;;7.28;3.60;;;;;;;2.04;nan;101256.41;5024611;28;20391;-72
2023/01/06 06:50:38;;;;;;;8.07;2.80;;;;;;;1.94;nan;101242.63;5021743;28;20040;-71
2023/01/06 06:53:03;;;;;;;8.13;2.70;;;;;;;1.91;nan;101251.53;5020233;28;20045;-72
2023/01/06 06:55:29;;;;;;;5.03;2.70;;;;;;;1.97;nan;101260.53;5025264;28;20033;-72
2023/01/06 06:57:54;;;;;;;4.78;2.30;;;;;;;1.92;nan;101256.59;5024451;28;20035;-72
2023/01/06 07:00:19;;;;;;;10.73;4.35;;;;;;;1.91;nan;101251.53;5027578;28;20028;-72
2023/01/06 07:02:49;;;;;;;10.35;4.65;;;;;;;1.91;nan;101248.94;5025083;28;20479;-72
2023/01/06 07:05:15;;;;;;;7.05;3.35;;;;;;;1.90;nan;101255.13;5023024;28;20021;-72
2023/01/06 07:07:41;;;;;;;8.65;3.55;;;;;;;1.92;nan;101256.59;5011541;28;20025;-73
2023/01/06 07:10:06;;;;;;;7.13;3.58;;;;;;;2.05;nan;101271.00;5025794;28;20029;-72
2023/01/06 07:12:32;;;;;;;8.00;3.30;;;;;;;1.95;nan;101246.88;5008562;28;20044;-73
2023/01/06 07:14:57;;;;;;;7.78;4.10;;;;;;;2.23;nan;101289.22;5017834;28;20044;-72
2023/01/06 07:17:26;;;;;;;9.32;4.15;;;;;;;2.19;nan;101280.06;5010466;28;20033;-72
2023/01/06 07:19:52;;;;;;;8.68;4.50;;;;;;;2.20;nan;101272.13;5020195;28;20109;-71
2023/01/06 07:22:17;;;;;;;8.73;3.80;;;;;;;2.28;nan;101285.19;5023664;28;20124;-71
2023/01/06 07:24:42;;;;;;;6.95;3.70;;;;;;;2.38;nan;101298.13;5019730;28;20025;-71
2023/01/06 07:27:08;;;;;;;9.18;4.32;;;;;;;2.21;nan;101254.75;5019285;28;20022;-70
2023/01/06 07:29:33;;;;;;;10.73;4.43;;;;;;;;;;5020748;28;20044;-71
2023/01/06 07:31:59;;;;;;;10.00;4.20;;;;;;;;;;5020891;28;20029;-70
2023/01/06 07:34:24;;;;;;;8.57;4.47;;;;;;;;;;5025240;28;20387;-70
2023/01/06 07:36:50;;;;;;;18.77;4.65;;;;;;;;;;5038332;28;20042;-70
2023/01/06 07:39:15;;;;;;;12.43;4.80;;;;;;;;;;5042771;28;20030;-70
2023/01/06 07:41:40;;;;;;;11.63;6.00;;;;;;;;;;4993041;28;20786;-70
2023/01/06 07:44:05;;;;;;;20.80;8.97;;;;;;;;;;5020922;28;20740;-70
2023/01/06 07:46:30;;;;;;;39.37;18.27;;;;;;;;;;5039518;28;20388;-71
2023/01/06 07:48:56;;;;;;;34.10;18.23;;;;;;;;;;5007832;28;20483;-71
2023/01/06 07:51:21;;;;;;;40.20;16.97;;;;;;;;;;5028300;28;20499;-71
2023/01/06 07:53:46;;;;;;;42.10;20.23;;;;;;;3.82;nan;101282.84;5023736;28;20304;-70
2023/01/06 07:56:12;;;;;;;37.67;18.67;;;;;;;3.91;nan;101283.72;5026878;28;20293;-72
2023/01/06 07:58:37;;;;;;;65.90;33.40;;;;;;;4.09;nan;101297.41;5026392;28;20026;-73
2023/01/06 08:01:07;;;;;;;92.85;43.83;;;;;;;4.18;nan;101286.03;5011080;28;20438;-73
2023/01/06 08:03:32;;;;;;;;;;;;;;;4.45;nan;101299.75;5026456;28;20033;-73
2023/01/06 08:05:57;;;;;;;39.00;17.63;;;;;;;4.56;nan;101301.22;5017771;28;19910;-73
2023/01/06 08:08:23;;;;;;;25.05;12.98;;;;;;;4.73;nan;101309.84;5001249;28;20396;-73
2023/01/06 08:10:51;;;;;;;24.10;10.02;;;;;;;;;;5012196;28;20032;-74
2023/01/06 08:13:16;;;;;;;15.73;7.85;;;;;;;;;;5046650;28;20024;-73
2023/01/06 08:15:42;;;;;;;13.67;6.57;;;;;;;;;;5040511;28;20084;-72
2023/01/06 08:18:07;;;;;;;13.97;5.43;;;;;;;;;;5044698;28;20291;-71
2023/01/06 08:20:33;;;;;;;9.87;5.00;;;;;;;;;;5022035;28;20347;-72
2023/01/06 08:22:58;;;;;;;10.60;4.63;;;;;;;;;;5029771;28;20290;-70
2023/01/06 08:25:23;;;;;;;10.98;4.88;;;;;;;;;;5038545;28;20033;-72
2023/01/06 08:27:49;;;;;;;57.03;17.75;;;;;;;;;;5029481;28;20652;-74
2023/01/06 08:30:18;;;;;;;22.85;13.50;;;;;;;;;;5026533;28;20055;-74
2023/01/06 08:32:44;;;;;;;36.80;22.90;;;;;;;;;;5045806;28;20038;-74
2023/01/06 08:35:09;;;;;;;20.93;10.47;;;;;;;;;;5008638;28;20034;-75
2023/01/06 08:37:34;;;;;;;14.17;8.27;;;;;;;;;;5010705;28;20289;-73
2023/01/06 08:39:59;;;;;;;22.50;9.07;;;;;;;;;;4999897;28;20510;-76
2023/01/06 08:42:25;;;;;;;16.10;7.50;;;;;;;;;;5020906;28;20278;-75
2023/01/06 08:44:50;;;;;;;15.13;5.50;;;;;;;;;;5012228;28;20277;-73
2023/01/06 08:47:15;;;;;;;12.70;5.40;;;;;;;;;;5023721;28;20022;-74
2023/01/06 08:49:40;;;;;;;9.87;4.10;;;;;;;;;;5012948;28;20026;-74
2023/01/06 08:52:06;;;;;;;9.10;4.37;;;;;;;;;;5014252;28;20052;-72
2023/01/06 08:54:31;;;;;;;11.30;5.57;;;;;;;;;;5018804;28;20030;-76
2023/01/06 08:56:56;;;;;;;11.13;5.60;;;;;;;;;;5013823;28;20282;-75
2023/01/06 08:59:22;;;;;;;12.60;6.10;;;;;;;7.14;nan;101338.72;5027030;28;20109;-73
2023/01/06 09:01:47;;;;;;;18.17;6.05;;;;;;;;;;5023933;28;20456;-73
2023/01/06 09:04:12;;;;;;;14.43;6.53;;;;;;;;;;5039235;28;20528;-74
2023/01/06 09:06:38;;;;;;;20.45;7.00;;;;;;;;;;5011693;28;20290;-74
2023/01/06 09:09:04;;;;;;;9.57;5.25;;;;;;;;;;5023713;28;20129;-73
2023/01/06 09:11:30;;;;;;;14.65;5.80;;;;;;;;;;5020058;28;20112;-72
2023/01/06 09:13:55;;;;;;;9.43;5.10;;;;;;;7.50;nan;101353.75;5022228;28;20022;-73
2023/01/06 09:16:21;;;;;;;12.95;5.50;;;;;;;;;;5026244;28;20022;-73
2023/01/06 09:18:48;;;;;;;13.07;4.10;;;;;;;;;;5012193;28;20036;-73
2023/01/06 09:21:14;;;;;;;9.73;3.75;;;;;;;;;;5022237;28;20072;-72
2023/01/06 09:23:39;;;;;;;8.20;4.00;;;;;;;;;;5027498;28;20037;-76
2023/01/06 09:26:05;;;;;;;9.45;3.40;;;;;;;;;;5018139;28;20045;-74
2023/01/06 09:28:31;;;;;;;7.97;3.30;;;;;;;;;;5021671;28;20025;-73
2023/01/06 09:30:56;;;;;;;13.23;3.95;;;;;;;;;;5020874;28;20286;-74
2023/01/06 09:33:22;;;;;;;12.30;3.80;;;;;;;;;;5026152;28;20022;-71
2023/01/06 09:35:47;;;;;;;12.13;3.37;;;;;;;;;;5027780;28;20044;-72
2023/01/06 09:38:12;;;;;;;9.93;3.40;;;;;;;;;;5027049;28;20285;-72
2023/01/06 09:40:41;;;;;;;8.73;3.90;;;;;;;;;;5021863;28;20293;-72
2023/01/06 09:43:12;;;;;;;10.90;3.88;;;;;;;;;;5023634;28;20038;-72
2023/01/06 09:45:41;;;;;;;7.20;3.20;;;;;;;;;;5042103;28;20692;-72
2023/01/06 09:48:10;;;;;;;10.05;3.33;;;;;;;;;;5025610;28;20040;-72
2023/01/06 09:50:47;;;;;;;7.97;4.03;;;;;;;;;;5040370;28;20079;-72
2023/01/06 09:53:12;;;;;;;8.02;3.55;;;;;;;;;;5006856;28;20025;-71
2023/01/06 09:55:40;;;;;;;6.93;3.40;;;;;;;;;;5017479;28;20087;-72
2023/01/06 09:58:12;;;;;;;9.50;4.63;;;;;;;;;;5018937;28;20033;-72
2023/01/06 10:00:37;;;;;;;6.93;3.90;;;;;;;;;;5006411;28;20033;-72
2023/01/06 10:03:03;;;;;;;10.43;4.22;;;;;;;;;;5005358;28;20041;-72
2023/01/06 10:05:28;;;;;;;10.25;4.10;;;;;;;;;;5024567;28;20022;-73
2023/01/06 10:07:58;;;;;;;8.07;4.07;;;;;;;;;;5022731;28;20550;-74
2023/01/06 10:10:29;;;;;;;8.00;3.97;;;;;;;;;;5025380;28;20021;-73
2023/01/06 10:13:02;;;;;;;29.90;10.93;;;;;;;;;;5017348;28;20037;-73
2023/01/06 10:15:36;;;;;;;13.00;5.18;;;;;;;;;;5009572;28;20033;-73
2023/01/06 10:18:13;;;;;;;13.15;5.50;;;;;;;;;;5019203;28;20472;-73
2023/01/06 10:20:38;;;;;;;8.85;4.32;;;;;;;;;;5028390;28;20484;-73
2023/01/06 10:23:16;;;;;;;8.97;3.70;;;;;;;;;;5047101;28;20065;-72
2023/01/06 10:26:04;;;;;;;76.88;21.00;;;;;;;;;;5022633;28;20287;-74
2023/01/06 10:28:34;;;;;;;50.75;15.88;;;;;;;;;;5001470;28;20104;-73
2023/01/06 10:31:02;;;;;;;29.98;9.98;;;;;;;;;;5020432;28;20083;-73
2023/01/06 10:33:32;;;;;;;38.47;11.18;;;;;;;;;;5024023;28;20036;-72
2023/01/06 10:35:57;;;;;;;8.93;4.07;;;;;;;;;;5023928;28;20076;-74
2023/01/06 10:38:25;;;;;;;8.85;4.47;;;;;;;;;;5029144;28;20060;-73
2023/01/06 10:40:51;;;;;;;14.90;5.65;;;;;;;;;;5025911;28;20479;-72
2023/01/06 10:43:21;;;;;;;7.97;4.53;;;;;;;;;;5018619;28;20121;-72
2023/01/06 10:45:47;;;;;;;8.20;4.18;;;;;;;;;;5019192;28;20018;-70
2023/01/06 10:48:26;;;;;;;10.10;3.60;;;;;;;;;;5025714;28;20033;-73
2023/01/06 10:50:52;;;;;;;8.30;4.63;;;;;;;;;;5015706;28;20037;-72
2023/01/06 10:53:17;;;;;;;23.23;8.88;;;;;;;;;;5006581;28;20041;-72
2023/01/06 10:55:47;;;;;;;5.82;2.75;;;;;;;;;;5007482;28;20041;-73
2023/01/06 10:58:32;;;;;;;5.05;2.58;;;;;;;;;;5018384;28;20022;-71
2023/01/06 11:00:57;;;;;;;5.97;3.13;;;;;;;;;;5012153;28;20555;-71
2023/01/06 11:03:22;;;;;;;5.07;2.63;;;;;;;;;;5015469;28;20026;-73
2023/01/06 11:05:57;;;;;;;6.28;2.65;;;;;;;;;;5017496;28;20025;-72
2023/01/06 11:08:23;;;;;;;4.80;2.22;;;;;;;;;;5015922;28;20029;-72
2023/01/06 11:10:56;;;;;;;8.52;2.80;;;;;;;;;;5013069;28;20035;-72
2023/01/06 11:13:24;;;;;;;4.70;2.40;;;;;;;;;;5044093;28;20026;-74
2023/01/06 11:15:49;;;;;;;5.90;3.17;;;;;;;;;;5021962;28;20032;-73
2023/01/06 11:18:24;;;;;;;4.23;2.13;;;;;;;;;;5010021;28;20030;-72
2023/01/06 11:21:12;;;;;;;5.40;2.53;;;;;;;;;;5012202;28;20033;-74
2023/01/06 11:23:38;;;;;;;6.30;3.15;;;;;;;;;;5020057;28;20098;-74
2023/01/06 11:26:10;;;;;;;5.30;3.00;;;;;;;;;;5016663;28;20378;-73
2023/01/06 11:28:35;;;;;;;4.65;2.45;;;;;;;;;;5015670;28;20113;-74
2023/01/06 11:31:02;;;;;;;5.37;2.50;;;;;;;;;;5014713;28;20539;-71
2023/01/06 11:33:29;;;;;;;5.70;2.47;;;;;;;;;;5027744;28;20784;-73
2023/01/06 11:35:55;;;;;;;5.25;2.35;;;;;;;;;;5022791;28;20040;-73
2023/01/06 11:38:21;;;;;;;3.97;2.30;;;;;;;;;;5024288;28;20399;-73
2023/01/06 11:40:47;;;;;;;4.60;2.10;;;;;;;;;;5018789;28;20132;-73
2023/01/06 11:43:32;;;;;;;3.65;1.98;;;;;;;;;;5018684;28;20761;-72
2023/01/06 11:45:59;;;;;;;4.72;2.28;;;;;;;;;;5018629;28;20083;-73
2023/01/06 11:48:29;;;;;;;6.20;2.40;;;;;;;;;;5006946;28;20111;-73
2023/01/06 11:50:56;;;;;;;4.05;2.20;;;;;;;;;;5031119;28;20494;-73
2023/01/06 11:53:23;;;;;;;8.43;2.67;;;;;;;;;;5035388;28;20029;-73
2023/01/06 11:56:05;;;;;;;8.73;2.55;;;;;;;;;;5016706;28;20473;-73
2023/01/06 11:58:43;;;;;;;6.75;3.95;;;;;;;;;;5008626;28;20044;-70
2023/01/06 12:01:28;;;;;;;24.45;7.75;;;;;;;;;;5007041;28;20396;-71
2023/01/06 12:03:59;;;;;;;6.68;3.22;;;;;;;;;;5027784;28;20091;-71
2023/01/06 12:06:36;;;;;;;12.00;4.13;;;;;;;;;;4997327;28;20045;-70
2023/01/06 12:09:09;;;;;;;19.92;8.23;;;;;;;;;;5037069;28;20033;-71
2023/01/06 12:11:40;;;;;;;9.20;3.72;;;;;;;;;;5037664;28;20079;-71
2023/01/06 12:14:11;;;;;;;8.82;5.13;;;;;;;;;;5016382;28;20041;-72
2023/01/06 12:16:46;;;;;;;5.97;4.13;;;;;;;;;;5015816;28;20587;-72
2023/01/06 12:19:18;;;;;;;7.07;3.10;;;;;;;;;;5022763;28;20030;-77
2023/01/06 12:21:44;;;;;;;4.95;2.75;;;;;;;;;;5019426;28;20029;-73
2023/01/06 12:24:12;;;;;;;6.60;3.00;;;;;;;;;;5016866;28;20061;-72
2023/01/06 12:26:38;;;;;;;18.13;5.63;;;;;;;;;;5020464;28;20301;-72
2023/01/06 12:29:05;;;;;;;11.60;4.40;;;;;;;;;;5029340;28;20391;-72
2023/01/06 12:31:43;;;;;;;13.80;4.40;;;;;;;;;;5026138;28;20026;-73
2023/01/06 12:34:08;;;;;;;6.95;2.40;;;;;;;;;;5009990;28;20032;-71
2023/01/06 12:36:33;;;;;;;7.87;2.30;;;;;;;;;;5024301;28;20037;-72
2023/01/06 12:39:10;;;;;;;8.77;3.60;;;;;;;;;;5025571;28;20021;-71
2023/01/06 12:41:41;;;;;;;12.20;3.85;;;;;;;;;;5014329;28;20610;-74
2023/01/06 12:44:25;;;;;;;6.22;2.67;;;;;;;;;;5015244;28;20017;-74
2023/01/06 12:46:55;;;;;;;10.30;3.28;;;;;;;;;;5018411;28;20068;-71
2023/01/06 12:49:28;;;;;;;6.47;2.33;;;;;;;;;;5024925;28;20030;-77
2023/01/06 12:51:55;;;;;;;5.78;2.15;;;;;;;;;;5029636;28;20658;-77
2023/01/06 12:54:24;;;;;;;7.00;2.40;;;;;;;;;;5033418;28;20471;-77
2023/01/06 12:57:01;;;;;;;6.78;2.28;;;;;;;;;;5046586;28;20092;-76
2023/01/06 12:59:52;;;;;;;5.13;2.55;;;;;;;;;;5031345;28;20069;-77
2023/01/06 13:02:24;;;;;;;7.45;2.92;;;;;;;;;;5008757;28;20124;-78
2023/01/06 13:05:07;;;;;;;7.15;2.55;;;;;;;;;;5023365;28;20028;-73
2023/01/06 13:07:38;;;;;;;9.15;3.53;;;;;;;;;;5026871;28;20036;-73
2023/01/06 13:10:09;;;;;;;8.05;2.75;;;;;;;;;;5007248;28;20375;-70
2023/01/06 13:12:46;;;;;;;10.15;3.33;;;;;;;;;;5022931;28;20095;-71
2023/01/06 13:15:19;;;;;;;3.42;2.00;;;;;;;;;;5026636;28;20029;-72
2023/01/06 13:17:44;;;;;;;6.53;2.83;;;;;;;;;;5029157;28;20033;-72
2023/01/06 13:20:15;;;;;;;6.70;3.00;;;;;;;;;;5010512;28;20026;-72
2023/01/06 13:22:57;;;;;;;8.27;2.78;;;;;;;;;;5042167;28;20296;-73
2023/01/06 13:25:41;;;;;;;7.90;2.88;;;;;;;;;;5024443;28;20057;-71
2023/01/06 13:28:29;;;;;;;8.45;2.50;;;;;;;;;;5030498;28;20037;-75
2023/01/06 13:31:04;;;;;;;7.05;2.80;;;;;;;;;;5022763;28;20029;-77
2023/01/06 13:33:41;;;;;;;6.88;3.20;;;;;;;;;;5011720;28;20026;-76
2023/01/06 13:36:15;;;;;;;5.93;3.20;;;;;;;;;;5024304;28;20088;-73
2023/01/06 13:38:44;;;;;;;9.48;2.90;;;;;;;;;;5022931;28;20028;-73
2023/01/06 13:41:15;;;;;;;10.52;3.38;;;;;;;;;;5022496;28;20033;-73
2023/01/06 13:43:41;;;;;;;8.52;3.50;;;;;;;;;;5010263;28;20022;-72
2023/01/06 13:46:08;;;;;;;5.75;2.92;;;;;;;;;;5027711;28;20094;-73
2023/01/06 13:48:38;;;;;;;6.60;3.47;;;;;;;;;;5026788;28;20119;-72
2023/01/06 13:51:05;;;;;;;7.72;3.50;;;;;;;;;;5023248;28;20030;-72
2023/01/06 13:53:39;;;;;;;7.78;3.63;;;;;;;;;;5022453;28;20033;-72
2023/01/06 13:56:13;;;;;;;7.88;3.60;;;;;;;;;;5022544;28;20716;-72
2023/01/06 13:58:40;;;;;;;8.15;3.80;;;;;;;;;;5022132;28;20029;-72
2023/01/06 14:01:08;;;;;;;7.95;3.53;;;;;;;;;;5018124;28;20360;-73
2023/01/06 14:03:34;;;;;;;8.30;3.03;;;;;;;;;;5023612;28;20080;-74
2023/01/06 14:06:00;;;;;;;12.98;4.07;;;;;;;;;;5005062;28;20387;-72
2023/01/06 14:08:27;;;;;;;8.45;3.47;;;;;;;;;;5029232;28;20033;-72
2023/01/06 14:10:57;;;;;;;8.43;3.63;;;;;;;;;;5005744;28;20028;-72
2023/01/06 14:13:23;;;;;;;12.35;3.47;;;;;;;;;;5028622;28;20153;-72